sensor_id;sensor_type;location;lat;lon;timestamp;temperature;humidity
17774;DHT22;9011;33.236;-97.118;2022-10-28T00:01:19;20.20;99.90
17774;DHT22;9011;33.236;-97.118;2022-10-28T00:03:49;20.20;99.90
17774;DHT22;9011;33.236;-97.118;2022-10-28T00:06:19;20.20;99.90
17774;DHT22;9011;33.236;-97.118;2022-10-28T00:08:50;20.20;99.90
17774;DHT22;9011;33.236;-97.118;2022-10-28T00:11:20;20.10;99.90
17774;DHT22;9011;33.236;-97.118;2022-10-28T00:13:51;20.00;99.90
17774;DHT22;9011;33.236;-97.118;2022-10-28T00:16:22;20.00;99.90
17774;DHT22;9011;33.236;-97.118;2022-10-28T00:18:51;19.90;99.90
17774;DHT22;9011;33.236;-97.118;2022-10-28T00:21:21;19.90;99.90
17774;DHT22;9011;33.236;-97.118;2022-10-28T00:23:52;19.70;99.90
17774;DHT22;9011;33.236;-97.118;2022-10-28T00:26:22;19.70;99.90
17774;DHT22;9011;33.236;-97.118;2022-10-28T00:28:53;19.60;99.90
17774;DHT22;9011;33.236;-97.118;2022-10-28T00:31:24;19.60;99.90
17774;DHT22;9011;33.236;-97.118;2022-10-28T00:33:53;19.60;99.90
17774;DHT22;9011;33.236;-97.118;2022-10-28T00:36:23;19.50;99.90
17774;DHT22;9011;33.236;-97.118;2022-10-28T00:38:54;19.50;99.90
17774;DHT22;9011;33.236;-97.118;2022-10-28T00:41:24;19.30;99.90
17774;DHT22;9011;33.236;-97.118;2022-10-28T00:43:55;19.30;99.90
17774;DHT22;9011;33.236;-97.118;2022-10-28T00:46:27;19.20;99.90
17774;DHT22;9011;33.236;-97.118;2022-10-28T00:49:01;19.20;99.90
17774;DHT22;9011;33.236;-97.118;2022-10-28T00:51:31;19.20;99.90
17774;DHT22;9011;33.236;-97.118;2022-10-28T00:54:03;19.10;99.90
17774;DHT22;9011;33.236;-97.118;2022-10-28T00:56:36;19.00;99.90
17774;DHT22;9011;33.236;-97.118;2022-10-28T00:59:09;19.00;99.90
17774;DHT22;9011;33.236;-97.118;2022-10-28T01:01:39;19.10;99.90
17774;DHT22;9011;33.236;-97.118;2022-10-28T01:04:08;18.90;99.90
17774;DHT22;9011;33.236;-97.118;2022-10-28T01:06:36;18.90;99.90
17774;DHT22;9011;33.236;-97.118;2022-10-28T01:09:07;18.90;99.90
17774;DHT22;9011;33.236;-97.118;2022-10-28T01:11:52;18.90;99.90
17774;DHT22;9011;33.236;-97.118;2022-10-28T01:14:33;18.90;99.90
17774;DHT22;9011;33.236;-97.118;2022-10-28T01:17:37;18.80;99.90
17774;DHT22;9011;33.236;-97.118;2022-10-28T01:20:33;18.70;99.90
17774;DHT22;9011;33.236;-97.118;2022-10-28T01:23:12;18.60;99.90
17774;DHT22;9011;33.236;-97.118;2022-10-28T01:25:59;18.50;99.90
17774;DHT22;9011;33.236;-97.118;2022-10-28T01:28:57;18.50;99.90
17774;DHT22;9011;33.236;-97.118;2022-10-28T01:31:38;18.40;99.90
17774;DHT22;9011;33.236;-97.118;2022-10-28T01:34:12;18.40;99.90
17774;DHT22;9011;33.236;-97.118;2022-10-28T01:36:51;18.40;99.90
17774;DHT22;9011;33.236;-97.118;2022-10-28T01:39:28;18.40;99.90
17774;DHT22;9011;33.236;-97.118;2022-10-28T01:42:03;18.40;99.90
17774;DHT22;9011;33.236;-97.118;2022-10-28T01:44:44;18.30;99.90
17774;DHT22;9011;33.236;-97.118;2022-10-28T01:47:19;18.30;99.90
17774;DHT22;9011;33.236;-97.118;2022-10-28T01:49:55;18.30;99.90
17774;DHT22;9011;33.236;-97.118;2022-10-28T01:52:25;18.30;99.90
17774;DHT22;9011;33.236;-97.118;2022-10-28T01:55:00;18.20;99.90
17774;DHT22;9011;33.236;-97.118;2022-10-28T01:57:30;18.20;99.90
17774;DHT22;9011;33.236;-97.118;2022-10-28T02:00:01;18.10;99.90
17774;DHT22;9011;33.236;-97.118;2022-10-28T02:02:35;18.10;99.90
17774;DHT22;9011;33.236;-97.118;2022-10-28T02:05:32;18.10;99.90
17774;DHT22;9011;33.236;-97.118;2022-10-28T02:07:58;18.00;99.90
17774;DHT22;9011;33.236;-97.118;2022-10-28T02:10:33;18.00;99.90
17774;DHT22;9011;33.236;-97.118;2022-10-28T02:13:08;18.00;99.90
17774;DHT22;9011;33.236;-97.118;2022-10-28T02:15:44;18.00;99.90
17774;DHT22;9011;33.236;-97.118;2022-10-28T02:18:25;18.00;99.90
17774;DHT22;9011;33.236;-97.118;2022-10-28T02:20:59;18.00;99.90
17774;DHT22;9011;33.236;-97.118;2022-10-28T02:23:40;18.00;99.90
17774;DHT22;9011;33.236;-97.118;2022-10-28T02:26:15;17.90;99.90
17774;DHT22;9011;33.236;-97.118;2022-10-28T02:28:53;18.00;99.90
17774;DHT22;9011;33.236;-97.118;2022-10-28T02:31:27;17.90;99.90
17774;DHT22;9011;33.236;-97.118;2022-10-28T02:34:01;17.90;99.90
17774;DHT22;9011;33.236;-97.118;2022-10-28T02:36:34;17.90;99.90
17774;DHT22;9011;33.236;-97.118;2022-10-28T02:39:05;17.90;99.90
17774;DHT22;9011;33.236;-97.118;2022-10-28T02:41:37;17.90;99.90
17774;DHT22;9011;33.236;-97.118;2022-10-28T02:44:10;17.80;99.90
17774;DHT22;9011;33.236;-97.118;2022-10-28T02:46:42;17.90;99.90
17774;DHT22;9011;33.236;-97.118;2022-10-28T02:49:14;17.80;99.90
17774;DHT22;9011;33.236;-97.118;2022-10-28T02:51:45;17.80;99.90
17774;DHT22;9011;33.236;-97.118;2022-10-28T02:54:16;17.80;99.90
17774;DHT22;9011;33.236;-97.118;2022-10-28T02:56:50;17.80;99.90
17774;DHT22;9011;33.236;-97.118;2022-10-28T02:59:19;17.80;99.90
17774;DHT22;9011;33.236;-97.118;2022-10-28T03:01:48;17.90;99.90
17774;DHT22;9011;33.236;-97.118;2022-10-28T03:04:18;17.80;99.90
17774;DHT22;9011;33.236;-97.118;2022-10-28T03:06:46;17.90;99.90
17774;DHT22;9011;33.236;-97.118;2022-10-28T03:09:14;17.90;99.90
17774;DHT22;9011;33.236;-97.118;2022-10-28T03:11:43;17.90;99.90
17774;DHT22;9011;33.236;-97.118;2022-10-28T03:14:11;17.90;99.90
17774;DHT22;9011;33.236;-97.118;2022-10-28T03:16:39;17.90;99.90
17774;DHT22;9011;33.236;-97.118;2022-10-28T03:19:08;17.90;99.90
17774;DHT22;9011;33.236;-97.118;2022-10-28T03:21:38;17.90;99.90
17774;DHT22;9011;33.236;-97.118;2022-10-28T03:24:07;17.80;99.90
17774;DHT22;9011;33.236;-97.118;2022-10-28T03:26:35;17.80;99.90
17774;DHT22;9011;33.236;-97.118;2022-10-28T03:29:04;17.80;99.90
17774;DHT22;9011;33.236;-97.118;2022-10-28T03:31:32;17.70;99.90
17774;DHT22;9011;33.236;-97.118;2022-10-28T03:34:01;17.70;99.90
17774;DHT22;9011;33.236;-97.118;2022-10-28T03:36:29;17.70;99.90
17774;DHT22;9011;33.236;-97.118;2022-10-28T03:38:59;17.70;99.90
17774;DHT22;9011;33.236;-97.118;2022-10-28T03:41:28;17.70;99.90
17774;DHT22;9011;33.236;-97.118;2022-10-28T03:43:56;17.70;99.90
17774;DHT22;9011;33.236;-97.118;2022-10-28T03:46:25;17.70;99.90
17774;DHT22;9011;33.236;-97.118;2022-10-28T03:48:53;17.70;99.90
17774;DHT22;9011;33.236;-97.118;2022-10-28T03:51:22;17.70;99.90
17774;DHT22;9011;33.236;-97.118;2022-10-28T03:53:50;17.70;99.90
17774;DHT22;9011;33.236;-97.118;2022-10-28T03:56:21;17.60;99.90
17774;DHT22;9011;33.236;-97.118;2022-10-28T03:58:49;17.60;99.90
17774;DHT22;9011;33.236;-97.118;2022-10-28T04:01:17;17.60;99.90
17774;DHT22;9011;33.236;-97.118;2022-10-28T04:03:46;17.60;99.90
17774;DHT22;9011;33.236;-97.118;2022-10-28T04:06:14;17.60;99.90
17774;DHT22;9011;33.236;-97.118;2022-10-28T04:08:42;17.60;99.90
17774;DHT22;9011;33.236;-97.118;2022-10-28T04:11:11;17.60;99.90
17774;DHT22;9011;33.236;-97.118;2022-10-28T04:13:41;17.60;99.90
17774;DHT22;9011;33.236;-97.118;2022-10-28T04:16:09;17.60;99.90
17774;DHT22;9011;33.236;-97.118;2022-10-28T04:18:37;17.60;99.90
17774;DHT22;9011;33.236;-97.118;2022-10-28T04:21:06;17.60;99.90
17774;DHT22;9011;33.236;-97.118;2022-10-28T04:23:34;17.60;99.90
17774;DHT22;9011;33.236;-97.118;2022-10-28T04:26:02;17.50;99.90
17774;DHT22;9011;33.236;-97.118;2022-10-28T04:28:31;17.50;99.90
17774;DHT22;9011;33.236;-97.118;2022-10-28T04:31:01;17.50;99.90
17774;DHT22;9011;33.236;-97.118;2022-10-28T04:33:29;17.60;99.90
17774;DHT22;9011;33.236;-97.118;2022-10-28T04:35:58;17.50;99.90
17774;DHT22;9011;33.236;-97.118;2022-10-28T04:38:26;17.60;99.90
17774;DHT22;9011;33.236;-97.118;2022-10-28T04:40:54;17.50;99.90
17774;DHT22;9011;33.236;-97.118;2022-10-28T04:43:23;17.40;99.90
17774;DHT22;9011;33.236;-97.118;2022-10-28T04:45:52;17.50;99.90
17774;DHT22;9011;33.236;-97.118;2022-10-28T04:48:22;17.50;99.90
17774;DHT22;9011;33.236;-97.118;2022-10-28T04:50:50;17.50;99.90
17774;DHT22;9011;33.236;-97.118;2022-10-28T04:53:18;17.40;99.90
17774;DHT22;9011;33.236;-97.118;2022-10-28T04:55:47;17.40;99.90
17774;DHT22;9011;33.236;-97.118;2022-10-28T04:58:15;17.40;99.90
17774;DHT22;9011;33.236;-97.118;2022-10-28T05:00:44;17.30;99.90
17774;DHT22;9011;33.236;-97.118;2022-10-28T05:03:13;17.30;99.90
17774;DHT22;9011;33.236;-97.118;2022-10-28T05:05:43;17.30;99.90
17774;DHT22;9011;33.236;-97.118;2022-10-28T05:08:11;17.20;99.90
17774;DHT22;9011;33.236;-97.118;2022-10-28T05:10:40;17.20;99.90
17774;DHT22;9011;33.236;-97.118;2022-10-28T05:13:08;17.20;99.90
17774;DHT22;9011;33.236;-97.118;2022-10-28T05:15:37;17.10;99.90
17774;DHT22;9011;33.236;-97.118;2022-10-28T05:18:05;17.10;99.90
17774;DHT22;9011;33.236;-97.118;2022-10-28T05:20:33;17.20;99.90
17774;DHT22;9011;33.236;-97.118;2022-10-28T05:23:03;17.10;99.90
17774;DHT22;9011;33.236;-97.118;2022-10-28T05:25:32;17.10;99.90
17774;DHT22;9011;33.236;-97.118;2022-10-28T05:28:00;17.20;99.90
17774;DHT22;9011;33.236;-97.118;2022-10-28T05:30:29;17.10;99.90
17774;DHT22;9011;33.236;-97.118;2022-10-28T05:32:59;17.10;99.90
17774;DHT22;9011;33.236;-97.118;2022-10-28T05:35:28;17.10;99.90
17774;DHT22;9011;33.236;-97.118;2022-10-28T05:37:56;17.10;99.90
17774;DHT22;9011;33.236;-97.118;2022-10-28T05:40:26;17.10;99.90
17774;DHT22;9011;33.236;-97.118;2022-10-28T05:42:55;17.10;99.90
17774;DHT22;9011;33.236;-97.118;2022-10-28T05:45:23;17.20;99.90
17774;DHT22;9011;33.236;-97.118;2022-10-28T05:47:51;17.20;99.90
17774;DHT22;9011;33.236;-97.118;2022-10-28T05:50:20;17.10;99.90
17774;DHT22;9011;33.236;-97.118;2022-10-28T05:52:49;17.20;99.90
17774;DHT22;9011;33.236;-97.118;2022-10-28T05:55:19;17.20;99.90
17774;DHT22;9011;33.236;-97.118;2022-10-28T05:57:50;17.20;99.90
17774;DHT22;9011;33.236;-97.118;2022-10-28T06:00:21;17.20;99.90
17774;DHT22;9011;33.236;-97.118;2022-10-28T06:02:49;17.20;99.90
17774;DHT22;9011;33.236;-97.118;2022-10-28T06:05:18;17.30;99.90
17774;DHT22;9011;33.236;-97.118;2022-10-28T06:07:46;17.30;99.90
17774;DHT22;9011;33.236;-97.118;2022-10-28T06:10:15;17.40;99.90
17774;DHT22;9011;33.236;-97.118;2022-10-28T06:12:43;17.40;99.90
17774;DHT22;9011;33.236;-97.118;2022-10-28T06:15:13;17.30;99.90
17774;DHT22;9011;33.236;-97.118;2022-10-28T06:17:41;17.40;99.90
17774;DHT22;9011;33.236;-97.118;2022-10-28T06:20:10;17.30;99.90
17774;DHT22;9011;33.236;-97.118;2022-10-28T06:22:46;17.20;99.90
17774;DHT22;9011;33.236;-97.118;2022-10-28T06:25:15;17.20;99.90
17774;DHT22;9011;33.236;-97.118;2022-10-28T06:27:43;17.30;99.90
17774;DHT22;9011;33.236;-97.118;2022-10-28T06:30:14;17.20;99.90
17774;DHT22;9011;33.236;-97.118;2022-10-28T06:32:42;17.30;99.90
17774;DHT22;9011;33.236;-97.118;2022-10-28T06:35:10;17.30;99.90
17774;DHT22;9011;33.236;-97.118;2022-10-28T06:37:39;17.30;99.90
17774;DHT22;9011;33.236;-97.118;2022-10-28T06:40:08;17.30;99.90
17774;DHT22;9011;33.236;-97.118;2022-10-28T06:42:37;17.30;99.90
17774;DHT22;9011;33.236;-97.118;2022-10-28T06:45:06;17.30;99.90
17774;DHT22;9011;33.236;-97.118;2022-10-28T06:47:36;17.20;99.90
17774;DHT22;9011;33.236;-97.118;2022-10-28T06:50:05;17.20;99.90
17774;DHT22;9011;33.236;-97.118;2022-10-28T06:52:33;17.20;99.90
17774;DHT22;9011;33.236;-97.118;2022-10-28T06:55:02;17.20;99.90
17774;DHT22;9011;33.236;-97.118;2022-10-28T06:57:30;17.20;99.90
17774;DHT22;9011;33.236;-97.118;2022-10-28T06:59:59;17.30;99.90
17774;DHT22;9011;33.236;-97.118;2022-10-28T07:02:27;17.30;99.90
17774;DHT22;9011;33.236;-97.118;2022-10-28T07:04:57;17.30;99.90
17774;DHT22;9011;33.236;-97.118;2022-10-28T07:07:25;17.30;99.90
17774;DHT22;9011;33.236;-97.118;2022-10-28T07:09:54;17.30;99.90
17774;DHT22;9011;33.236;-97.118;2022-10-28T07:12:22;17.30;99.90
17774;DHT22;9011;33.236;-97.118;2022-10-28T07:14:50;17.30;99.90
17774;DHT22;9011;33.236;-97.118;2022-10-28T07:17:19;17.30;99.90
17774;DHT22;9011;33.236;-97.118;2022-10-28T07:19:47;17.40;99.90
17774;DHT22;9011;33.236;-97.118;2022-10-28T07:22:17;17.40;99.90
17774;DHT22;9011;33.236;-97.118;2022-10-28T07:24:45;17.30;99.90
17774;DHT22;9011;33.236;-97.118;2022-10-28T07:27:14;17.40;99.90
17774;DHT22;9011;33.236;-97.118;2022-10-28T07:29:42;17.40;99.90
17774;DHT22;9011;33.236;-97.118;2022-10-28T07:32:10;17.50;99.90
17774;DHT22;9011;33.236;-97.118;2022-10-28T07:34:38;17.40;99.90
17774;DHT22;9011;33.236;-97.118;2022-10-28T07:37:07;17.30;99.90
17774;DHT22;9011;33.236;-97.118;2022-10-28T07:39:38;17.30;99.90
17774;DHT22;9011;33.236;-97.118;2022-10-28T07:42:06;17.20;99.90
17774;DHT22;9011;33.236;-97.118;2022-10-28T07:44:34;17.30;99.90
17774;DHT22;9011;33.236;-97.118;2022-10-28T07:47:03;17.20;99.90
17774;DHT22;9011;33.236;-97.118;2022-10-28T07:49:31;17.30;99.90
17774;DHT22;9011;33.236;-97.118;2022-10-28T07:51:59;17.20;99.90
17774;DHT22;9011;33.236;-97.118;2022-10-28T07:54:28;17.10;99.90
17774;DHT22;9011;33.236;-97.118;2022-10-28T07:56:58;17.20;99.90
17774;DHT22;9011;33.236;-97.118;2022-10-28T07:59:27;17.20;99.90
17774;DHT22;9011;33.236;-97.118;2022-10-28T08:01:55;17.20;99.90
17774;DHT22;9011;33.236;-97.118;2022-10-28T08:04:23;17.20;99.90
17774;DHT22;9011;33.236;-97.118;2022-10-28T08:06:52;17.10;99.90
17774;DHT22;9011;33.236;-97.118;2022-10-28T08:09:20;17.20;99.90
17774;DHT22;9011;33.236;-97.118;2022-10-28T08:11:49;17.20;99.90
17774;DHT22;9011;33.236;-97.118;2022-10-28T08:14:19;17.20;99.90
17774;DHT22;9011;33.236;-97.118;2022-10-28T08:16:47;17.20;99.90
17774;DHT22;9011;33.236;-97.118;2022-10-28T08:19:16;17.10;99.90
17774;DHT22;9011;33.236;-97.118;2022-10-28T08:21:46;17.20;99.90
17774;DHT22;9011;33.236;-97.118;2022-10-28T08:24:15;17.30;99.90
17774;DHT22;9011;33.236;-97.118;2022-10-28T08:26:43;17.20;99.90
17774;DHT22;9011;33.236;-97.118;2022-10-28T08:29:12;17.30;99.90
17774;DHT22;9011;33.236;-97.118;2022-10-28T08:31:42;17.30;99.90
17774;DHT22;9011;33.236;-97.118;2022-10-28T08:34:10;17.30;99.90
17774;DHT22;9011;33.236;-97.118;2022-10-28T08:36:39;17.20;99.90
17774;DHT22;9011;33.236;-97.118;2022-10-28T08:39:08;17.20;99.90
17774;DHT22;9011;33.236;-97.118;2022-10-28T08:41:39;17.10;99.90
17774;DHT22;9011;33.236;-97.118;2022-10-28T08:44:36;16.90;99.90
17774;DHT22;9011;33.236;-97.118;2022-10-28T08:47:27;16.90;99.90
17774;DHT22;9011;33.236;-97.118;2022-10-28T08:50:02;16.90;99.90
17774;DHT22;9011;33.236;-97.118;2022-10-28T08:52:34;16.90;99.90
17774;DHT22;9011;33.236;-97.118;2022-10-28T08:55:11;16.90;99.90
17774;DHT22;9011;33.236;-97.118;2022-10-28T08:57:43;16.90;99.90
17774;DHT22;9011;33.236;-97.118;2022-10-28T09:00:19;16.90;99.90
17774;DHT22;9011;33.236;-97.118;2022-10-28T09:02:58;16.90;99.90
17774;DHT22;9011;33.236;-97.118;2022-10-28T09:05:28;16.90;99.90
17774;DHT22;9011;33.236;-97.118;2022-10-28T09:07:57;16.90;99.90
17774;DHT22;9011;33.236;-97.118;2022-10-28T09:10:48;16.90;99.90
17774;DHT22;9011;33.236;-97.118;2022-10-28T09:13:24;17.00;99.90
17774;DHT22;9011;33.236;-97.118;2022-10-28T09:16:04;16.90;99.90
17774;DHT22;9011;33.236;-97.118;2022-10-28T09:18:50;17.00;99.90
17774;DHT22;9011;33.236;-97.118;2022-10-28T09:21:24;16.90;99.90
17774;DHT22;9011;33.236;-97.118;2022-10-28T09:23:58;16.80;99.90
17774;DHT22;9011;33.236;-97.118;2022-10-28T09:26:36;16.80;99.90
17774;DHT22;9011;33.236;-97.118;2022-10-28T09:29:19;16.80;99.90
17774;DHT22;9011;33.236;-97.118;2022-10-28T09:31:54;16.80;99.90
17774;DHT22;9011;33.236;-97.118;2022-10-28T09:34:33;16.90;99.90
17774;DHT22;9011;33.236;-97.118;2022-10-28T09:37:09;16.70;99.90
17774;DHT22;9011;33.236;-97.118;2022-10-28T09:39:41;16.80;99.90
17774;DHT22;9011;33.236;-97.118;2022-10-28T09:42:14;16.80;99.90
17774;DHT22;9011;33.236;-97.118;2022-10-28T09:44:48;16.70;99.90
17774;DHT22;9011;33.236;-97.118;2022-10-28T09:47:20;16.80;99.90
17774;DHT22;9011;33.236;-97.118;2022-10-28T09:49:52;16.80;99.90
17774;DHT22;9011;33.236;-97.118;2022-10-28T09:52:27;16.90;99.90
17774;DHT22;9011;33.236;-97.118;2022-10-28T09:54:57;16.90;99.90
17774;DHT22;9011;33.236;-97.118;2022-10-28T09:57:29;17.00;99.90
17774;DHT22;9011;33.236;-97.118;2022-10-28T09:59:58;17.00;99.90
17774;DHT22;9011;33.236;-97.118;2022-10-28T10:02:28;17.00;99.90
17774;DHT22;9011;33.236;-97.118;2022-10-28T10:04:59;16.90;99.90
17774;DHT22;9011;33.236;-97.118;2022-10-28T10:07:34;16.90;99.90
17774;DHT22;9011;33.236;-97.118;2022-10-28T10:10:09;16.80;99.90
17774;DHT22;9011;33.236;-97.118;2022-10-28T10:12:39;16.70;99.90
17774;DHT22;9011;33.236;-97.118;2022-10-28T10:15:13;16.60;99.90
17774;DHT22;9011;33.236;-97.118;2022-10-28T10:17:44;16.70;99.90
17774;DHT22;9011;33.236;-97.118;2022-10-28T10:20:16;16.60;99.90
17774;DHT22;9011;33.236;-97.118;2022-10-28T10:22:45;16.60;99.90
17774;DHT22;9011;33.236;-97.118;2022-10-28T10:25:26;16.60;99.90
17774;DHT22;9011;33.236;-97.118;2022-10-28T10:28:01;16.60;99.90
17774;DHT22;9011;33.236;-97.118;2022-10-28T10:30:32;16.60;99.90
17774;DHT22;9011;33.236;-97.118;2022-10-28T10:33:01;16.60;99.90
17774;DHT22;9011;33.236;-97.118;2022-10-28T10:35:33;16.50;99.90
17774;DHT22;9011;33.236;-97.118;2022-10-28T10:38:05;16.60;99.90
17774;DHT22;9011;33.236;-97.118;2022-10-28T10:40:36;16.60;99.90
17774;DHT22;9011;33.236;-97.118;2022-10-28T10:43:20;16.60;99.90
17774;DHT22;9011;33.236;-97.118;2022-10-28T10:45:52;16.60;99.90
17774;DHT22;9011;33.236;-97.118;2022-10-28T10:48:26;16.40;99.90
17774;DHT22;9011;33.236;-97.118;2022-10-28T10:50:56;16.50;99.90
17774;DHT22;9011;33.236;-97.118;2022-10-28T10:53:25;16.30;99.90
17774;DHT22;9011;33.236;-97.118;2022-10-28T10:55:56;16.30;99.90
17774;DHT22;9011;33.236;-97.118;2022-10-28T10:58:29;16.20;99.90
17774;DHT22;9011;33.236;-97.118;2022-10-28T11:01:01;16.20;99.90
17774;DHT22;9011;33.236;-97.118;2022-10-28T11:03:31;15.90;99.90
17774;DHT22;9011;33.236;-97.118;2022-10-28T11:06:05;15.70;99.90
17774;DHT22;9011;33.236;-97.118;2022-10-28T11:08:36;15.70;99.90
17774;DHT22;9011;33.236;-97.118;2022-10-28T11:11:11;15.60;99.90
17774;DHT22;9011;33.236;-97.118;2022-10-28T11:13:40;15.60;99.90
17774;DHT22;9011;33.236;-97.118;2022-10-28T11:16:17;15.50;99.90
17774;DHT22;9011;33.236;-97.118;2022-10-28T11:18:47;15.40;99.90
17774;DHT22;9011;33.236;-97.118;2022-10-28T11:21:34;15.20;99.90
17774;DHT22;9011;33.236;-97.118;2022-10-28T11:27:11;15.10;99.90
17774;DHT22;9011;33.236;-97.118;2022-10-28T11:29:41;14.90;99.90
17774;DHT22;9011;33.236;-97.118;2022-10-28T11:32:34;14.80;99.90
17774;DHT22;9011;33.236;-97.118;2022-10-28T11:35:24;14.60;99.90
17774;DHT22;9011;33.236;-97.118;2022-10-28T11:38:06;14.60;99.90
17774;DHT22;9011;33.236;-97.118;2022-10-28T11:40:48;14.40;99.90
17774;DHT22;9011;33.236;-97.118;2022-10-28T11:43:27;14.40;99.90
17774;DHT22;9011;33.236;-97.118;2022-10-28T11:46:07;14.30;99.90
17774;DHT22;9011;33.236;-97.118;2022-10-28T11:48:57;14.20;99.90
17774;DHT22;9011;33.236;-97.118;2022-10-28T11:51:33;14.20;99.90
17774;DHT22;9011;33.236;-97.118;2022-10-28T11:54:22;14.20;99.90
17774;DHT22;9011;33.236;-97.118;2022-10-28T11:56:57;14.20;99.90
17774;DHT22;9011;33.236;-97.118;2022-10-28T11:59:49;14.10;99.90
17774;DHT22;9011;33.236;-97.118;2022-10-28T12:02:33;14.00;99.90
17774;DHT22;9011;33.236;-97.118;2022-10-28T12:05:10;14.00;99.90
17774;DHT22;9011;33.236;-97.118;2022-10-28T12:08:04;13.90;99.90
17774;DHT22;9011;33.236;-97.118;2022-10-28T12:10:47;14.00;99.90
17774;DHT22;9011;33.236;-97.118;2022-10-28T12:13:26;13.90;99.90
17774;DHT22;9011;33.236;-97.118;2022-10-28T12:16:01;13.80;99.90
17774;DHT22;9011;33.236;-97.118;2022-10-28T12:18:34;13.50;99.90
17774;DHT22;9011;33.236;-97.118;2022-10-28T12:21:13;13.60;99.90
17774;DHT22;9011;33.236;-97.118;2022-10-28T12:23:44;13.40;99.90
17774;DHT22;9011;33.236;-97.118;2022-10-28T12:26:16;13.40;99.90
17774;DHT22;9011;33.236;-97.118;2022-10-28T12:28:47;13.40;99.90
17774;DHT22;9011;33.236;-97.118;2022-10-28T12:31:20;13.40;99.90
17774;DHT22;9011;33.236;-97.118;2022-10-28T12:33:51;13.40;99.90
17774;DHT22;9011;33.236;-97.118;2022-10-28T12:36:29;13.40;99.90
17774;DHT22;9011;33.236;-97.118;2022-10-28T12:39:05;13.20;99.90
17774;DHT22;9011;33.236;-97.118;2022-10-28T12:41:51;13.30;99.90
17774;DHT22;9011;33.236;-97.118;2022-10-28T12:44:23;13.10;99.90
17774;DHT22;9011;33.236;-97.118;2022-10-28T12:47:03;13.00;99.90
17774;DHT22;9011;33.236;-97.118;2022-10-28T12:49:40;13.10;99.90
17774;DHT22;9011;33.236;-97.118;2022-10-28T12:52:22;13.10;99.90
17774;DHT22;9011;33.236;-97.118;2022-10-28T12:54:57;13.00;99.90
17774;DHT22;9011;33.236;-97.118;2022-10-28T12:57:30;12.90;99.90
17774;DHT22;9011;33.236;-97.118;2022-10-28T13:00:03;12.80;99.90
17774;DHT22;9011;33.236;-97.118;2022-10-28T13:02:38;12.70;99.90
17774;DHT22;9011;33.236;-97.118;2022-10-28T13:05:17;12.60;99.90
17774;DHT22;9011;33.236;-97.118;2022-10-28T13:10:51;12.60;99.90
17774;DHT22;9011;33.236;-97.118;2022-10-28T13:13:38;12.70;99.90
17774;DHT22;9011;33.236;-97.118;2022-10-28T13:16:33;12.70;99.90
17774;DHT22;9011;33.236;-97.118;2022-10-28T13:24:57;12.60;99.90
17774;DHT22;9011;33.236;-97.118;2022-10-28T13:27:29;12.50;99.90
17774;DHT22;9011;33.236;-97.118;2022-10-28T13:32:31;12.40;99.90
17774;DHT22;9011;33.236;-97.118;2022-10-28T13:35:01;12.50;99.90
17774;DHT22;9011;33.236;-97.118;2022-10-28T13:37:38;12.40;99.90
17774;DHT22;9011;33.236;-97.118;2022-10-28T13:40:21;12.30;99.90
17774;DHT22;9011;33.236;-97.118;2022-10-28T13:42:50;12.30;99.90
17774;DHT22;9011;33.236;-97.118;2022-10-28T13:45:50;12.10;99.90
17774;DHT22;9011;33.236;-97.118;2022-10-28T13:48:44;12.20;99.90
17774;DHT22;9011;33.236;-97.118;2022-10-28T13:51:33;12.10;99.90
17774;DHT22;9011;33.236;-97.118;2022-10-28T13:54:01;12.20;99.90
17774;DHT22;9011;33.236;-97.118;2022-10-28T13:56:36;12.20;99.90
17774;DHT22;9011;33.236;-97.118;2022-10-28T13:59:26;12.20;99.90
17774;DHT22;9011;33.236;-97.118;2022-10-28T14:01:59;12.20;99.90
17774;DHT22;9011;33.236;-97.118;2022-10-28T14:04:31;12.00;99.90
17774;DHT22;9011;33.236;-97.118;2022-10-28T14:07:15;12.10;99.90
17774;DHT22;9011;33.236;-97.118;2022-10-28T14:09:45;12.20;99.90
17774;DHT22;9011;33.236;-97.118;2022-10-28T14:12:25;12.30;99.90
17774;DHT22;9011;33.236;-97.118;2022-10-28T14:15:02;12.30;99.90
17774;DHT22;9011;33.236;-97.118;2022-10-28T14:17:37;12.30;99.90
17774;DHT22;9011;33.236;-97.118;2022-10-28T14:20:22;12.30;99.90
17774;DHT22;9011;33.236;-97.118;2022-10-28T14:22:51;12.40;99.90
17774;DHT22;9011;33.236;-97.118;2022-10-28T14:26:00;12.40;99.90
17774;DHT22;9011;33.236;-97.118;2022-10-28T14:28:59;12.40;99.90
17774;DHT22;9011;33.236;-97.118;2022-10-28T14:34:38;12.40;99.90
17774;DHT22;9011;33.236;-97.118;2022-10-28T14:37:46;12.50;99.90
17774;DHT22;9011;33.236;-97.118;2022-10-28T14:40:32;12.50;99.90
17774;DHT22;9011;33.236;-97.118;2022-10-28T14:46:12;12.50;99.90
17774;DHT22;9011;33.236;-97.118;2022-10-28T14:48:48;12.60;99.90
17774;DHT22;9011;33.236;-97.118;2022-10-28T14:51:21;12.60;99.90
17774;DHT22;9011;33.236;-97.118;2022-10-28T14:53:52;12.50;99.90
17774;DHT22;9011;33.236;-97.118;2022-10-28T14:56:24;12.50;99.90
17774;DHT22;9011;33.236;-97.118;2022-10-28T14:58:56;12.40;99.90
17774;DHT22;9011;33.236;-97.118;2022-10-28T15:01:35;12.20;99.90
17774;DHT22;9011;33.236;-97.118;2022-10-28T15:04:11;12.00;99.90
17774;DHT22;9011;33.236;-97.118;2022-10-28T15:06:42;12.00;99.90
17774;DHT22;9011;33.236;-97.118;2022-10-28T15:09:18;12.10;99.90
17774;DHT22;9011;33.236;-97.118;2022-10-28T15:11:49;12.00;99.90
17774;DHT22;9011;33.236;-97.118;2022-10-28T15:14:32;12.10;99.90
17774;DHT22;9011;33.236;-97.118;2022-10-28T15:17:20;12.10;99.90
17774;DHT22;9011;33.236;-97.118;2022-10-28T15:19:51;12.10;99.90
17774;DHT22;9011;33.236;-97.118;2022-10-28T15:22:22;12.10;99.90
17774;DHT22;9011;33.236;-97.118;2022-10-28T15:24:59;12.00;99.90
17774;DHT22;9011;33.236;-97.118;2022-10-28T15:27:29;12.10;99.90
17774;DHT22;9011;33.236;-97.118;2022-10-28T15:29:58;12.10;99.90
17774;DHT22;9011;33.236;-97.118;2022-10-28T15:32:29;12.10;99.90
17774;DHT22;9011;33.236;-97.118;2022-10-28T15:34:57;12.10;99.90
17774;DHT22;9011;33.236;-97.118;2022-10-28T15:37:28;12.00;99.90
17774;DHT22;9011;33.236;-97.118;2022-10-28T15:40:18;12.10;99.90
17774;DHT22;9011;33.236;-97.118;2022-10-28T15:42:55;12.10;99.90
17774;DHT22;9011;33.236;-97.118;2022-10-28T15:45:26;12.30;99.90
17774;DHT22;9011;33.236;-97.118;2022-10-28T15:47:56;12.50;99.90
17774;DHT22;9011;33.236;-97.118;2022-10-28T15:50:29;12.40;99.90
17774;DHT22;9011;33.236;-97.118;2022-10-28T15:53:29;12.30;99.90
17774;DHT22;9011;33.236;-97.118;2022-10-28T15:56:16;12.40;99.90
17774;DHT22;9011;33.236;-97.118;2022-10-28T15:58:46;12.30;99.90
17774;DHT22;9011;33.236;-97.118;2022-10-28T16:01:30;12.30;99.90
17774;DHT22;9011;33.236;-97.118;2022-10-28T16:04:03;12.40;99.90
17774;DHT22;9011;33.236;-97.118;2022-10-28T16:06:33;12.30;99.90
17774;DHT22;9011;33.236;-97.118;2022-10-28T16:09:14;12.50;99.90
17774;DHT22;9011;33.236;-97.118;2022-10-28T16:11:46;12.40;99.90
17774;DHT22;9011;33.236;-97.118;2022-10-28T16:14:29;12.40;99.90